Alma, Alabama
Current Conditions -  °F | °C
As of 11:53 PM on Saturday 22 Nov 2014 (Local Time) from KGZH Reporting Station
Overcast Overcast  
Wind Chill: 61°   Ceiling: 900
Heat Index: 61°   Visibility: 10mi
Dew Point: 59°   Wind: 13mph
Humidity: 93%   Direction: 110°ESE
Pressure: 30"   Gusts: NA
Location:  31.46°N, 87.75°W
Report Text: KGZH 230553Z AUTO 11011KT 10SM BKN009 OVC015 16/15 A3000 RMK AO2 RAE27 SLP156 P0000 60008 T01610150 10161 20150 402220022 56034
Loading
Personal Weather Stations






























Interactive Weather Map New forecast layout! Learn more

10-Day Weather Forecast

Advertisements
Track Severe Weather on mobile